Lunenburg, Massachusetts
Current Conditions -  °F | °C
As of 10:52 PM on Tuesday 21 Oct 2014 (Local Time) from KFIT Reporting Station
Overcast Overcast  
Wind Chill: 53°   Ceiling: 700
Heat Index: 53°   Visibility: 10mi
Dew Point: 49°   Wind: 9mph
Humidity: 86%   Direction: 360°N
Pressure: 30.02"   Gusts: NA
Location:  42.6°N, 71.72°W
Report Text: KFIT 220252Z AUTO 36008KT 10SM OVC007 12/09 A3002 RMK AO2 SLP167 T01170094 51018
Loading
Personal Weather Stations






























Interactive Weather Map
Tropical Storm Tracking
New forecast layout! Learn more

10-Day Weather Forecast

Advertisements
Track Severe Weather on mobile